AKST,Max TemperatureF,Mean TemperatureF,Min TemperatureF,Max Dew PointF,MeanDew PointF,Min DewpointF,Max Humidity, Mean Humidity, Min Humidity, Max Sea Level PressureIn, Mean Sea Level PressureIn, Min Sea Level PressureIn, Max VisibilityMiles, Mean VisibilityMiles, Min VisibilityMiles, Max Wind SpeedMPH, Mean Wind SpeedMPH, Max Gust SpeedMPH,PrecipitationIn, CloudCover, Events, WindDirDegrees
2012-1-1,35,28,21,32,22,19,100,93,85,29.90,29.42,29.03,7,1,0,15,11,22,1.01,8,Fog-Snow,286
2012-1-2,37,32,26,36,29,21,93,83,62,29.70,29.40,29.03,10,9,2,26,14,37,0.11,7,Rain-Snow,105
2012-1-3,27,24,21,24,22,19,96,88,74,29.69,29.38,29.25,10,4,0,17,12,24,0.30,6,Fog-Snow,300
2012-1-4,28,26,24,27,24,20,100,91,78,29.30,29.15,28.97,10,3,0,24,12,33,0.26,8,Fog-Snow,297
2012-1-5,37,28,18,32,26,16,100,91,79,30.01,29.68,29.32,10,10,10,16,8,20,0.00,5,,296
2012-1-6,28,18,10,27,17,8,100,92,86,29.97,29.75,29.63,10,4,0,14,5,18,0.28,7,Fog-Snow,298
2012-1-7,39,32,26,39,34,24,100,93,86,29.66,29.27,29.10,10,6,2,21,11,37,1.61,8,Rain-Snow,80
2012-1-8,39,37,35,37,36,34,93,91,86,29.47,29.34,29.15,10,8,4,23,16,40,1.12,8,Rain,104
2012-1-9,37,27,16,34,22,6,93,78,61,30.47,29.92,29.44,10,7,0,23,10,34,0.01,6,Fog-Snow,286
2012-1-10,33,22,12,31,23,5,100,88,67,30.52,30.38,30.23,10,3,0,22,14,40,0.14,7,Fog-Snow,93
2012-1-11,37,35,33,36,33,32,100,94,86,30.22,30.05,29.88,10,4,1,20,15,34,0.29,8,Rain-Snow,78
2012-1-12,37,36,34,36,34,32,96,91,86,29.84,29.66,29.52,10,8,1,22,14,44,1.17,8,Rain-Snow,97
2012-1-13,35,27,18,32,25,5,93,81,57,30.13,29.93,29.82,10,7,1,24,15,38,0.02,6,Snow,106
2012-1-14,17,14,10,4,-3,-6,56,51,46,30.72,30.52,30.18,10,10,10,23,18,41,0.00,1,,302
2012-1-15,12,6,1,-1,-7,-13,80,48,32,30.79,30.76,30.71,10,10,10,14,9,20,0.00,0,,323
2012-1-16,8,3,-2,-4,-7,-11,79,69,42,30.78,30.74,30.72,10,10,10,8,2,,0.00,0,,295
2012-1-17,8,4,1,-8,-10,-14,58,49,42,30.71,30.60,30.50,10,10,10,14,7,,0.00,0,,310
2012-1-18,14,12,9,-5,-7,-8,47,44,41,30.50,30.36,30.19,10,10,10,15,12,22,0.00,0,,318
2012-1-19,10,8,6,-7,-9,-10,53,47,42,30.18,29.99,29.83,10,10,10,17,14,25,0.00,0,,316
2012-1-20,15,10,5,6,-4,-10,77,49,39,29.82,29.51,29.15,10,9,2,12,8,17,0.00,3,Snow,311
2012-1-21,12,10,8,7,6,3,92,82,70,29.12,28.96,28.86,7,2,0,18,10,25,0.08,8,Fog-Snow,307
2012-1-22,19,14,8,18,10,3,93,87,79,29.15,29.10,28.98,10,3,0,20,15,22,0.07,8,Fog-Snow,293
2012-1-23,30,24,17,28,20,14,100,92,85,29.22,29.19,29.14,10,3,0,14,5,18,0.15,8,Fog-Snow,300
2012-1-24,30,26,21,28,24,19,100,93,86,29.14,28.86,28.59,3,1,0,15,8,,0.31,8,Fog-Snow,285
2012-1-25,32,26,19,31,27,18,100,93,80,29.39,29.15,28.55,10,2,0,25,16,41,0.45,8,Fog-Snow,114
2012-1-26,28,26,23,27,23,19,93,84,67,29.72,29.58,29.40,10,6,1,18,11,26,0.01,7,Snow,113
2012-1-27,26,20,15,23,16,12,93,88,77,30.05,29.92,29.68,10,8,0,16,6,,0.00,6,Fog-Snow,298
2012-1-28,21,18,16,16,14,11,93,80,65,29.99,29.64,29.35,10,10,3,18,15,26,0.00,7,Snow,299
2012-1-29,19,17,15,13,11,8,88,76,62,29.36,29.32,29.29,10,6,2,20,14,32,0.00,8,Snow,304
2012-1-30,21,18,14,19,16,10,93,88,79,29.40,29.32,29.26,10,2,0,17,12,,0.24,8,Fog-Snow,292
2012-1-31,37,29,21,35,30,19,100,92,86,29.63,29.40,29.27,10,8,0,16,8,23,0.10,8,Fog-Rain-Snow,320